createdAt,value
2023-02-02T00:01:01.799Z,7.53
2023-02-02T00:03:28.599Z,7.52
2023-02-02T00:05:55.222Z,7.48
2023-02-02T00:08:22.201Z,7.47
2023-02-02T00:10:50.604Z,7.44
2023-02-02T00:13:18.303Z,7.43
2023-02-02T00:15:45.483Z,7.42
2023-02-02T00:18:12.467Z,7.41
2023-02-02T00:20:39.321Z,7.37
2023-02-02T00:23:06.041Z,7.34
2023-02-02T00:25:33.061Z,7.29
2023-02-02T00:27:59.690Z,7.30
2023-02-02T00:30:26.343Z,7.29
2023-02-02T00:32:53.274Z,7.31
2023-02-02T00:35:20.225Z,7.30
2023-02-02T00:37:46.859Z,7.31
2023-02-02T00:40:13.865Z,7.33
2023-02-02T00:42:40.998Z,7.32
2023-02-02T00:45:16.905Z,7.29
2023-02-02T00:47:50.038Z,7.28
2023-02-02T00:50:21.945Z,7.27
2023-02-02T00:52:49.331Z,7.28
2023-02-02T00:55:17.007Z,7.29
2023-02-02T00:57:44.445Z,7.27
2023-02-02T01:00:15.261Z,7.27
2023-02-02T01:02:42.161Z,7.26
2023-02-02T01:05:09.569Z,7.25
2023-02-02T01:07:36.232Z,7.28
2023-02-02T01:10:04.049Z,7.27
2023-02-02T01:12:31.445Z,7.25
2023-02-02T01:14:58.274Z,7.27
2023-02-02T01:17:25.121Z,7.30
2023-02-02T01:19:51.801Z,7.29
2023-02-02T01:22:18.505Z,7.29
2023-02-02T01:24:45.280Z,7.27
2023-02-02T01:27:11.918Z,7.22
2023-02-02T01:29:38.538Z,7.16
2023-02-02T01:32:05.318Z,7.14
2023-02-02T01:34:32.019Z,7.11
2023-02-02T01:36:58.796Z,7.12
2023-02-02T01:39:28.009Z,7.05
2023-02-02T01:41:55.505Z,7.06
2023-02-02T01:44:53.594Z,7.10
2023-02-02T01:47:23.592Z,7.09
2023-02-02T01:49:50.810Z,7.07
2023-02-02T01:52:19.930Z,6.98
2023-02-02T01:54:53.198Z,6.88
2023-02-02T01:57:32.944Z,6.79
2023-02-02T02:00:03.202Z,6.73
2023-02-02T02:02:31.377Z,6.64
2023-02-02T02:05:01.758Z,6.50
2023-02-02T02:07:28.957Z,6.50
2023-02-02T02:09:55.704Z,6.41
2023-02-02T02:12:22.349Z,6.35
2023-02-02T02:15:09.744Z,6.37
2023-02-02T02:18:12.189Z,6.39
2023-02-02T02:21:19.297Z,6.43
2023-02-02T02:24:13.331Z,6.48
2023-02-02T02:26:53.814Z,6.52
2023-02-02T02:29:26.507Z,6.51
2023-02-02T02:32:08.938Z,6.58
2023-02-02T02:34:38.606Z,6.64
2023-02-02T02:37:15.156Z,6.69
2023-02-02T02:39:46.557Z,6.71
2023-02-02T02:42:18.927Z,6.69
2023-02-02T02:44:48.780Z,6.72
2023-02-02T02:47:17.400Z,6.71
2023-02-02T02:49:45.841Z,6.67
2023-02-02T02:52:12.682Z,6.65
2023-02-02T02:54:50.497Z,6.65
2023-02-02T02:57:34.976Z,6.67
2023-02-02T03:00:23.287Z,6.64
2023-02-02T03:03:20.297Z,6.54
2023-02-02T03:06:08.293Z,6.50
2023-02-02T03:08:44.131Z,6.40
2023-02-02T03:11:13.737Z,6.34
2023-02-02T03:13:41.625Z,6.27
2023-02-02T03:16:09.606Z,6.24
2023-02-02T03:18:36.806Z,6.20
2023-02-02T03:21:03.975Z,6.17
2023-02-02T03:23:30.753Z,6.10
2023-02-02T03:25:57.417Z,6.05
2023-02-02T03:28:25.218Z,6.09
2023-02-02T03:30:53.485Z,6.07
2023-02-02T03:33:20.901Z,6.08
2023-02-02T03:35:47.763Z,6.05
2023-02-02T03:38:14.366Z,6.05
2023-02-02T03:40:41.056Z,6.07
2023-02-02T03:43:08.193Z,6.09
2023-02-02T03:45:35.959Z,6.13
2023-02-02T03:48:06.000Z,6.17
2023-02-02T03:50:33.192Z,6.20
2023-02-02T03:53:00.382Z,6.23
2023-02-02T03:55:27.043Z,6.25
2023-02-02T03:57:53.736Z,6.23
2023-02-02T04:00:21.565Z,6.16
2023-02-02T04:02:48.305Z,6.09
2023-02-02T04:05:14.975Z,5.98
2023-02-02T04:07:41.616Z,5.91
2023-02-02T04:10:08.824Z,5.82
2023-02-02T04:12:36.085Z,5.79
2023-02-02T04:15:03.446Z,5.78
2023-02-02T04:17:30.121Z,5.71
2023-02-02T04:19:58.502Z,5.70
2023-02-02T04:22:26.253Z,5.70
2023-02-02T04:24:53.166Z,5.67
2023-02-02T04:27:19.950Z,5.72
2023-02-02T04:29:46.600Z,5.74
2023-02-02T04:32:16.117Z,5.81
2023-02-02T04:34:43.300Z,5.87
2023-02-02T04:37:11.540Z,5.90
2023-02-02T04:39:38.272Z,5.94
2023-02-02T04:42:05.040Z,5.96
2023-02-02T04:44:32.387Z,5.99
2023-02-02T04:46:59.437Z,6.00
2023-02-02T04:49:26.164Z,5.99
2023-02-02T04:51:52.755Z,5.99
2023-02-02T04:54:19.449Z,5.99
2023-02-02T04:56:46.115Z,6.01
2023-02-02T04:59:12.767Z,6.01
2023-02-02T05:01:39.420Z,6.02
2023-02-02T05:04:06.127Z,6.04
2023-02-02T05:06:32.745Z,6.01
2023-02-02T05:09:00.112Z,5.98
2023-02-02T05:11:27.266Z,5.97
2023-02-02T05:13:55.447Z,5.92
2023-02-02T05:16:23.754Z,5.91
2023-02-02T05:18:55.407Z,5.90
2023-02-02T05:21:22.577Z,5.91
2023-02-02T05:23:49.298Z,5.93
2023-02-02T05:26:26.709Z,5.96
2023-02-02T05:28:53.841Z,6.01
2023-02-02T05:31:21.172Z,6.05
2023-02-02T05:33:47.907Z,6.09
2023-02-02T05:36:14.859Z,6.10
2023-02-02T05:38:41.485Z,6.13
2023-02-02T05:41:08.204Z,6.16
2023-02-02T05:43:35.653Z,6.19
2023-02-02T05:46:02.524Z,6.24
2023-02-02T05:48:29.383Z,6.29
2023-02-02T05:51:05.756Z,6.38
2023-02-02T05:53:33.824Z,6.41
2023-02-02T05:56:00.592Z,6.44
2023-02-02T05:58:28.178Z,6.49
2023-02-02T06:00:56.598Z,6.49
2023-02-02T06:03:23.823Z,6.51
2023-02-02T06:05:50.707Z,6.53
2023-02-02T06:08:17.397Z,6.54
2023-02-02T06:10:44.291Z,6.48
2023-02-02T06:13:12.016Z,6.47
2023-02-02T06:15:39.251Z,6.43
2023-02-02T06:18:08.376Z,6.41
2023-02-02T06:20:35.638Z,6.43
2023-02-02T06:23:02.559Z,6.46
2023-02-02T06:25:29.229Z,6.47
2023-02-02T06:28:00.031Z,6.48
2023-02-02T06:30:27.569Z,6.51
2023-02-02T06:32:54.468Z,6.57
2023-02-02T06:35:21.361Z,6.59
2023-02-02T06:37:49.169Z,6.60
2023-02-02T06:40:16.361Z,6.65
2023-02-02T06:42:43.733Z,6.64
2023-02-02T06:45:11.356Z,6.64
2023-02-02T06:47:38.353Z,6.67
2023-02-02T06:50:05.529Z,6.71
2023-02-02T06:52:32.172Z,6.71
2023-02-02T06:54:58.779Z,6.74
2023-02-02T06:57:25.558Z,6.74
2023-02-02T06:59:52.373Z,6.74
2023-02-02T07:02:19.343Z,6.75
2023-02-02T07:04:46.129Z,6.76
2023-02-02T07:07:12.812Z,6.76
2023-02-02T07:09:39.735Z,6.79
2023-02-02T07:12:06.869Z,6.84
2023-02-02T07:14:33.877Z,6.86
2023-02-02T07:17:00.580Z,6.88
2023-02-02T07:19:27.309Z,6.87
2023-02-02T07:21:54.267Z,6.86
2023-02-02T07:24:24.275Z,6.88
2023-02-02T07:26:50.959Z,6.88
2023-02-02T07:29:17.676Z,6.85
2023-02-02T07:31:44.656Z,6.86
2023-02-02T07:34:12.070Z,6.85
2023-02-02T07:36:38.799Z,6.85
2023-02-02T07:39:05.769Z,6.86
2023-02-02T07:41:35.166Z,6.84
2023-02-02T07:44:02.498Z,6.90
2023-02-02T07:46:30.135Z,6.91
2023-02-02T07:48:57.155Z,6.93
2023-02-02T07:51:25.619Z,6.97
2023-02-02T07:53:54.286Z,7.02
2023-02-02T07:56:23.626Z,7.04
2023-02-02T07:58:53.201Z,7.05
2023-02-02T08:01:22.951Z,7.00
2023-02-02T08:03:50.753Z,6.99
2023-02-02T08:06:26.209Z,6.96
2023-02-02T08:08:52.832Z,6.95
2023-02-02T08:11:22.037Z,6.95
2023-02-02T08:13:53.915Z,6.93
2023-02-02T08:16:22.701Z,6.86
2023-02-02T08:18:50.137Z,6.89
2023-02-02T08:21:17.296Z,6.88
2023-02-02T08:23:45.650Z,6.89
2023-02-02T08:26:18.612Z,6.91
2023-02-02T08:28:48.204Z,6.91
2023-02-02T08:31:21.684Z,6.89
2023-02-02T08:33:48.785Z,6.94
2023-02-02T08:36:21.653Z,6.99
2023-02-02T08:38:49.159Z,6.99
2023-02-02T08:41:18.484Z,6.99
2023-02-02T08:43:46.275Z,7.01
2023-02-02T08:46:15.002Z,7.04
2023-02-02T08:48:42.304Z,7.08
2023-02-02T08:51:11.853Z,7.11
2023-02-02T08:53:38.751Z,7.15
2023-02-02T08:56:09.368Z,7.20
2023-02-02T08:58:36.276Z,7.24
2023-02-02T09:01:15.855Z,7.26
2023-02-02T09:03:42.648Z,7.32
2023-02-02T09:06:18.876Z,7.37
2023-02-02T09:08:46.631Z,7.42
2023-02-02T09:11:17.851Z,7.47
2023-02-02T09:13:46.668Z,7.51
2023-02-02T09:16:16.213Z,7.57
2023-02-02T09:18:44.522Z,7.65
2023-02-02T09:21:14.812Z,7.78
2023-02-02T09:23:43.081Z,7.84
2023-02-02T09:26:13.886Z,7.93
2023-02-02T09:28:42.203Z,7.99
2023-02-02T09:31:09.897Z,8.02
2023-02-02T09:33:37.814Z,8.03
2023-02-02T09:36:08.971Z,8.06
2023-02-02T09:38:36.579Z,8.08
2023-02-02T09:41:26.310Z,8.09
2023-02-02T09:43:52.905Z,8.12
2023-02-02T09:46:47.590Z,8.16
2023-02-02T09:49:28.065Z,8.19
2023-02-02T09:52:02.668Z,8.18
2023-02-02T09:54:34.196Z,8.20
2023-02-02T09:57:04.781Z,8.22
2023-02-02T09:59:36.914Z,8.24
2023-02-02T10:02:12.064Z,8.29
2023-02-02T10:04:40.999Z,8.30
2023-02-02T10:07:18.797Z,8.38
2023-02-02T10:09:55.683Z,8.43
2023-02-02T10:12:48.520Z,8.46
2023-02-02T10:15:37.629Z,8.53
2023-02-02T10:18:27.381Z,8.56
2023-02-02T10:21:13.795Z,8.59
2023-02-02T10:23:44.538Z,8.62
2023-02-02T10:26:42.260Z,8.69
2023-02-02T10:29:23.866Z,8.72
2023-02-02T10:32:14.827Z,8.80
2023-02-02T10:34:42.789Z,8.80
2023-02-02T10:37:35.132Z,8.89
2023-02-02T10:40:28.842Z,8.92
2023-02-02T10:43:30.861Z,8.99
2023-02-02T10:45:59.162Z,8.97
2023-02-02T10:48:35.978Z,9.00
2023-02-02T10:51:18.091Z,9.06
2023-02-02T10:53:51.272Z,9.13
2023-02-02T10:56:31.586Z,9.19
2023-02-02T10:59:22.180Z,9.22
2023-02-02T11:01:49.376Z,9.29
2023-02-02T11:04:35.699Z,9.32
2023-02-02T11:07:02.373Z,9.36
2023-02-02T11:09:35.301Z,9.40
2023-02-02T11:12:23.077Z,9.41
2023-02-02T11:14:52.332Z,9.47
2023-02-02T11:17:24.327Z,9.49
2023-02-02T11:19:51.755Z,9.50
2023-02-02T11:22:35.571Z,9.58
2023-02-02T11:25:22.307Z,9.62
2023-02-02T11:27:49.431Z,9.54
2023-02-02T11:30:34.141Z,9.56
2023-02-02T11:33:34.342Z,9.50
2023-02-02T11:36:17.729Z,9.52
2023-02-02T11:38:45.531Z,9.66
2023-02-02T11:41:13.895Z,9.63
2023-02-02T11:43:51.309Z,9.69
2023-02-02T11:46:24.771Z,9.76
2023-02-02T11:49:00.854Z,9.76
2023-02-02T11:51:28.961Z,9.75
2023-02-02T11:54:07.694Z,9.73
2023-02-02T11:56:39.201Z,9.70
2023-02-02T11:59:06.011Z,9.60
2023-02-02T12:01:44.127Z,9.57
2023-02-02T12:04:13.665Z,9.54
2023-02-02T12:06:41.013Z,9.53
2023-02-02T12:09:23.225Z,9.62
2023-02-02T12:12:12.124Z,9.76
2023-02-02T12:14:58.664Z,9.71
2023-02-02T12:17:43.009Z,9.75
2023-02-02T12:20:26.697Z,9.81
2023-02-02T12:22:56.577Z,9.80
2023-02-02T12:25:51.018Z,9.85
2023-02-02T12:28:58.837Z,9.84
2023-02-02T12:31:38.180Z,9.82
2023-02-02T12:34:20.347Z,9.78
2023-02-02T12:37:44.055Z,9.80
2023-02-02T12:40:37.925Z,9.84
2023-02-02T12:43:17.565Z,9.86
2023-02-02T12:45:53.206Z,9.90
2023-02-02T12:48:27.228Z,9.98
2023-02-02T12:51:12.527Z,9.97
2023-02-02T12:53:48.083Z,10.01
2023-02-02T12:57:03.863Z,10.02
2023-02-02T12:59:48.392Z,10.06
2023-02-02T13:02:34.189Z,10.06
2023-02-02T13:05:13.094Z,10.04
2023-02-02T13:07:48.893Z,10.04
2023-02-02T13:10:18.865Z,10.10
2023-02-02T13:12:57.510Z,10.15
2023-02-02T13:15:36.170Z,10.21
2023-02-02T13:18:19.656Z,10.22
2023-02-02T13:20:59.696Z,10.25
2023-02-02T13:23:28.975Z,10.23
2023-02-02T13:26:07.414Z,10.27
2023-02-02T13:29:22.203Z,10.32
2023-02-02T13:31:58.326Z,10.36
2023-02-02T13:34:46.124Z,10.31
2023-02-02T13:37:32.330Z,10.32
2023-02-02T13:40:03.071Z,10.32
2023-02-02T13:42:47.599Z,10.35
2023-02-02T13:45:35.973Z,10.36
2023-02-02T13:48:11.877Z,10.30
2023-02-02T13:51:04.145Z,10.24
2023-02-02T13:53:30.743Z,10.28
2023-02-02T13:56:40.988Z,10.26
2023-02-02T13:59:22.929Z,10.39
2023-02-02T14:01:52.497Z,10.34
2023-02-02T14:04:26.259Z,10.36
2023-02-02T14:07:07.376Z,10.38
2023-02-02T14:09:37.335Z,10.37
2023-02-02T14:12:09.763Z,10.28
2023-02-02T14:14:39.838Z,10.23
2023-02-02T14:17:27.690Z,10.24
2023-02-02T14:20:01.830Z,10.20
2023-02-02T14:22:52.734Z,10.26
2023-02-02T14:25:36.810Z,10.30
2023-02-02T14:28:11.138Z,10.33
2023-02-02T14:30:39.889Z,10.32
2023-02-02T14:33:21.787Z,10.34
2023-02-02T14:35:48.363Z,10.32
2023-02-02T14:38:39.580Z,10.34
2023-02-02T14:41:49.140Z,10.33
2023-02-02T14:44:16.131Z,10.33
2023-02-02T14:46:49.435Z,10.34
2023-02-02T14:49:19.305Z,10.32
2023-02-02T14:51:51.247Z,10.34
2023-02-02T14:54:24.389Z,10.35
2023-02-02T14:56:55.237Z,10.34
2023-02-02T14:59:34.088Z,10.29
2023-02-02T15:02:30.412Z,10.30
2023-02-02T15:05:29.183Z,10.27
2023-02-02T15:08:13.892Z,10.33
2023-02-02T15:10:53.937Z,10.24
2023-02-02T15:13:24.495Z,10.25
2023-02-02T15:16:04.519Z,10.26
2023-02-02T15:18:41.074Z,10.21
2023-02-02T15:21:08.533Z,10.26
2023-02-02T15:23:46.842Z,10.17
2023-02-02T15:26:19.923Z,10.16
2023-02-02T15:28:59.655Z,10.23
2023-02-02T15:31:52.250Z,10.23
2023-02-02T15:34:24.976Z,10.22
2023-02-02T15:36:55.250Z,10.15
2023-02-02T15:39:41.267Z,10.13
2023-02-02T15:42:39.588Z,10.15
2023-02-02T15:45:07.353Z,10.14
2023-02-02T15:47:38.037Z,10.15
2023-02-02T15:50:19.015Z,10.05
2023-02-02T15:52:51.801Z,10.11
2023-02-02T15:55:23.411Z,10.10
2023-02-02T15:57:54.240Z,10.05
2023-02-02T16:00:36.391Z,9.99
2023-02-02T16:03:24.830Z,9.96
2023-02-02T16:05:56.750Z,9.91
2023-02-02T16:08:35.038Z,9.91
2023-02-02T16:11:06.737Z,9.92
2023-02-02T16:13:33.831Z,9.86
2023-02-02T16:16:07.147Z,9.83
2023-02-02T16:18:35.756Z,9.83
2023-02-02T16:21:11.498Z,9.79
2023-02-02T16:23:39.159Z,9.75
2023-02-02T16:26:07.364Z,9.72
2023-02-02T16:28:35.476Z,9.73
2023-02-02T16:31:03.056Z,9.68
2023-02-02T16:33:35.774Z,9.65
2023-02-02T16:36:36.511Z,9.60
2023-02-02T16:39:03.168Z,9.63
2023-02-02T16:41:35.490Z,9.59
2023-02-02T16:44:41.153Z,9.56
2023-02-02T16:47:30.984Z,9.48
2023-02-02T16:50:09.624Z,9.45
2023-02-02T16:53:06.416Z,9.42
2023-02-02T16:55:49.423Z,9.41
2023-02-02T16:58:20.801Z,9.43
2023-02-02T17:01:16.571Z,9.45
2023-02-02T17:03:54.673Z,9.39
2023-02-02T17:06:50.168Z,9.33
2023-02-02T17:09:41.218Z,9.29
2023-02-02T17:12:32.149Z,9.32
2023-02-02T17:15:06.119Z,9.30
2023-02-02T17:17:32.799Z,9.32
2023-02-02T17:19:59.470Z,9.33
2023-02-02T17:22:27.824Z,9.32
2023-02-02T17:24:54.686Z,9.34
2023-02-02T17:27:24.036Z,9.38
2023-02-02T17:29:50.710Z,9.33
2023-02-02T17:32:17.376Z,9.41
2023-02-02T17:34:46.208Z,9.42
2023-02-02T17:37:12.859Z,9.38
2023-02-02T17:39:39.519Z,9.36
2023-02-02T17:42:06.784Z,9.35
2023-02-02T17:44:34.236Z,9.34
2023-02-02T17:47:01.016Z,9.29
2023-02-02T17:49:27.941Z,9.25
2023-02-02T17:51:55.061Z,9.27
2023-02-02T17:54:21.776Z,9.29
2023-02-02T17:56:48.421Z,9.26
2023-02-02T17:59:15.068Z,9.29
2023-02-02T18:01:42.003Z,9.26
2023-02-02T18:04:12.774Z,9.30
2023-02-02T18:06:40.115Z,9.28
2023-02-02T18:09:07.154Z,9.27
2023-02-02T18:11:34.156Z,9.26
2023-02-02T18:14:01.418Z,9.24
2023-02-02T18:16:28.762Z,9.26
2023-02-02T18:18:57.471Z,9.30
2023-02-02T18:21:26.541Z,9.29
2023-02-02T18:23:53.229Z,9.23
2023-02-02T18:26:22.422Z,9.22
2023-02-02T18:28:50.271Z,9.17
2023-02-02T18:31:19.929Z,9.21
2023-02-02T18:33:47.511Z,9.19
2023-02-02T18:36:20.173Z,9.19
2023-02-02T18:38:48.944Z,9.13
2023-02-02T18:41:17.928Z,9.14
2023-02-02T18:43:45.594Z,9.17
2023-02-02T18:46:14.916Z,9.16
2023-02-02T18:48:42.751Z,9.13
2023-02-02T18:51:16.061Z,9.14
2023-02-02T18:53:43.747Z,9.22
2023-02-02T18:56:12.973Z,9.23
2023-02-02T18:58:40.253Z,9.18
2023-02-02T19:01:09.133Z,9.19
2023-02-02T19:03:36.732Z,9.20
2023-02-02T19:06:23.369Z,9.20
2023-02-02T19:08:50.307Z,9.14
2023-02-02T19:11:19.686Z,9.12
2023-02-02T19:13:48.088Z,9.11
2023-02-02T19:16:15.053Z,9.09
2023-02-02T19:18:42.906Z,9.06
2023-02-02T19:21:11.815Z,9.00
2023-02-02T19:23:41.225Z,8.92
2023-02-02T19:26:29.493Z,8.90
2023-02-02T19:29:05.799Z,8.84
2023-02-02T19:31:32.665Z,8.84
2023-02-02T19:34:01.524Z,8.85
2023-02-02T19:36:30.973Z,8.82
2023-02-02T19:39:18.894Z,8.82
2023-02-02T19:41:45.822Z,8.83
2023-02-02T19:44:21.377Z,8.82
2023-02-02T19:46:50.729Z,8.71
2023-02-02T19:49:17.408Z,8.60
2023-02-02T19:51:50.992Z,8.62
2023-02-02T19:54:29.759Z,8.58
2023-02-02T19:57:06.612Z,8.56
2023-02-02T19:59:34.890Z,8.46
2023-02-02T20:02:23.160Z,8.37
2023-02-02T20:05:00.193Z,8.34
2023-02-02T20:07:27.005Z,8.33
2023-02-02T20:09:55.153Z,8.31
2023-02-02T20:12:27.966Z,8.30
2023-02-02T20:14:56.517Z,8.26
2023-02-02T20:17:31.988Z,8.26
2023-02-02T20:20:00.149Z,8.28
2023-02-02T20:22:29.153Z,8.27
2023-02-02T20:25:06.051Z,8.24
2023-02-02T20:27:34.147Z,8.23
2023-02-02T20:30:18.664Z,8.23
2023-02-02T20:32:45.495Z,8.25
2023-02-02T20:35:39.533Z,8.25
2023-02-02T20:38:29.730Z,8.23
2023-02-02T20:40:58.086Z,8.27
2023-02-02T20:43:24.928Z,8.31
2023-02-02T20:45:51.741Z,8.35
2023-02-02T20:48:19.460Z,8.37
2023-02-02T20:50:47.312Z,8.40
2023-02-02T20:53:16.482Z,8.36
2023-02-02T20:55:44.974Z,8.38
2023-02-02T20:58:12.138Z,8.37
2023-02-02T21:00:39.141Z,8.41
2023-02-02T21:03:05.755Z,8.44
2023-02-02T21:05:32.403Z,8.47
2023-02-02T21:07:59.015Z,8.48
2023-02-02T21:10:26.449Z,8.43
2023-02-02T21:12:53.319Z,8.39
2023-02-02T21:15:20.772Z,8.40
2023-02-02T21:17:47.654Z,8.36
2023-02-02T21:20:15.327Z,8.39
2023-02-02T21:22:42.266Z,8.42
2023-02-02T21:25:10.599Z,8.43
2023-02-02T21:27:41.921Z,8.44
2023-02-02T21:30:10.098Z,8.43
2023-02-02T21:32:37.321Z,8.40
2023-02-02T21:35:05.202Z,8.40
2023-02-02T21:37:38.740Z,8.46
2023-02-02T21:40:14.761Z,8.46
2023-02-02T21:42:48.772Z,8.44
2023-02-02T21:45:30.780Z,8.38
2023-02-02T21:47:59.289Z,8.33
2023-02-02T21:50:46.155Z,8.27
2023-02-02T21:53:16.864Z,8.21
2023-02-02T21:55:52.394Z,8.16
2023-02-02T21:58:32.521Z,8.10
2023-02-02T22:01:14.637Z,8.06
2023-02-02T22:03:46.647Z,7.95
2023-02-02T22:06:31.860Z,7.90
2023-02-02T22:09:14.042Z,7.81
2023-02-02T22:11:48.240Z,7.78
2023-02-02T22:14:41.042Z,7.75
2023-02-02T22:17:41.214Z,7.69
2023-02-02T22:20:17.429Z,7.63
2023-02-02T22:22:50.065Z,7.57
2023-02-02T22:25:17.317Z,7.58
2023-02-02T22:27:48.901Z,7.56
2023-02-02T22:30:36.828Z,7.54
2023-02-02T22:33:05.884Z,7.57
2023-02-02T22:35:33.561Z,7.53
2023-02-02T22:38:00.791Z,7.50
2023-02-02T22:40:27.949Z,7.49
2023-02-02T22:42:57.682Z,7.44
2023-02-02T22:45:24.692Z,7.46
2023-02-02T22:47:51.859Z,7.48
2023-02-02T22:50:21.409Z,7.51
2023-02-02T22:52:48.491Z,7.52
2023-02-02T22:55:15.617Z,7.54
2023-02-02T22:57:42.347Z,7.61
2023-02-02T23:00:12.818Z,7.66
2023-02-02T23:02:40.473Z,7.67
2023-02-02T23:05:08.951Z,7.68
2023-02-02T23:07:35.605Z,7.70
2023-02-02T23:10:02.570Z,7.71
2023-02-02T23:12:30.360Z,7.73
2023-02-02T23:14:56.993Z,7.72
2023-02-02T23:17:23.760Z,7.74
2023-02-02T23:19:50.402Z,7.76
2023-02-02T23:22:17.013Z,7.77
2023-02-02T23:24:44.579Z,7.79
2023-02-02T23:27:12.991Z,7.76
2023-02-02T23:29:39.956Z,7.72
2023-02-02T23:32:07.226Z,7.73
2023-02-02T23:34:33.936Z,7.75
2023-02-02T23:37:00.592Z,7.75
2023-02-02T23:39:27.244Z,7.73
2023-02-02T23:41:53.932Z,7.73
2023-02-02T23:44:20.541Z,7.77
2023-02-02T23:46:47.400Z,7.78
2023-02-02T23:49:14.348Z,7.78
2023-02-02T23:51:41.078Z,7.79
2023-02-02T23:54:10.101Z,7.81
2023-02-02T23:56:37.329Z,7.80
2023-02-02T23:59:04.007Z,7.79
